Time;durP1;ratioP1;P1;durP2;ratioP2;P2;SDS_P1;SDS_P2;PMS_P1;PMS_P2;Temp;Humidity;BMP_temperature;BMP_pressure;BME280_temperature;BME280_humidity;BME280_pressure;Samples;Min_cycle;Max_cycle;Signal;HPM_P1;HPM_P2
2022/09/20 00:00:41;;;;;;;;;;;9.40;99.90;;;;;;5015651;28;19926;-28
2022/09/20 00:03:06;;;;;;;;;;;9.40;99.90;;;;;;4999118;28;19916;-28
2022/09/20 00:05:34;;;;;;;;;;;9.30;99.90;;;;;;5015310;28;20370;-28
2022/09/20 00:08:00;;;;;;;;;;;9.30;99.90;;;;;;5015267;28;19916;-28
2022/09/20 00:10:26;;;;;;;;;;;9.20;99.90;;;;;;5015027;28;19967;-28
2022/09/20 00:12:53;;;;;;;;;;;9.10;99.90;;;;;;5015686;28;19929;-28
2022/09/20 00:15:18;;;;;;;;;;;9.10;99.90;;;;;;5015311;28;20015;-27
2022/09/20 00:17:44;;;;;;;;;;;9.10;99.90;;;;;;5033297;28;20020;-28
2022/09/20 00:20:10;;;;;;;;;;;9.10;99.90;;;;;;5018751;28;19957;-27
2022/09/20 00:22:35;;;;;;;;;;;9.10;99.90;;;;;;5036130;28;20370;-28
2022/09/20 00:25:01;;;;;;;;;;;9.00;99.90;;;;;;5018289;28;19924;-28
2022/09/20 00:27:26;;;;;;;;;;;9.00;99.90;;;;;;5018556;28;19924;-28
2022/09/20 00:29:52;;;;;;;;;;;9.00;99.90;;;;;;5002031;28;19921;-27
2022/09/20 00:32:18;;;;;;;;;;;9.00;99.90;;;;;;5018633;28;19917;-28
2022/09/20 00:37:28;;;;;;;;;;;8.90;99.90;;;;;;5035916;28;19988;-27
2022/09/20 00:39:54;;;;;;;;;;;8.90;99.90;;;;;;5018196;28;19919;-28
2022/09/20 00:42:25;;;;;;;;;;;8.80;99.90;;;;;;5018146;28;19917;-27
2022/09/20 00:44:54;;;;;;;;;;;8.70;99.90;;;;;;5017814;28;20366;-28
2022/09/20 00:47:29;;;;;;;;;;;8.80;99.90;;;;;;5017986;28;19921;-28
2022/09/20 00:49:58;;;;;;;;;;;8.80;99.90;;;;;;5035453;28;19924;-28
2022/09/20 00:52:25;;;;;;;;;;;8.70;99.90;;;;;;5035145;28;19917;-28
2022/09/20 00:54:51;;;;;;;;;;;8.70;99.90;;;;;;5017490;28;19963;-28
2022/09/20 00:57:17;;;;;;;;;;;8.60;99.90;;;;;;5017234;28;19924;-28
2022/09/20 00:59:45;;;;;;;;;;;8.60;99.90;;;;;;5017620;28;19917;-28
2022/09/20 01:02:17;;;;;;;;;;;8.60;99.90;;;;;;5016964;28;19917;-28
2022/09/20 01:04:43;;;;;;;;;;;8.50;99.90;;;;;;5000941;28;19964;-28
2022/09/20 01:07:12;;;;;;;;;;;8.50;99.90;;;;;;5016868;28;19917;-28
2022/09/20 01:09:38;;;;;;;;;;;8.50;99.90;;;;;;5034926;28;19967;-28
2022/09/20 01:12:11;;;;;;;;;;;8.50;99.90;;;;;;5016993;28;19917;-28
2022/09/20 01:14:36;;;;;;;;;;;8.50;99.90;;;;;;5017024;28;19923;-27
2022/09/20 01:17:04;;;;;;;;;;;8.40;99.90;;;;;;5017343;28;19921;-27
2022/09/20 01:19:39;;;;;;;;;;;8.40;99.90;;;;;;5016866;28;19923;-28
2022/09/20 01:22:09;;;;;;;;;;;8.30;99.90;;;;;;5016708;28;19983;-28
2022/09/20 01:24:44;;;;;;;;;;;8.20;99.90;;;;;;5000785;28;19916;-28
2022/09/20 01:27:10;;;;;;;;;;;8.20;99.90;;;;;;5017279;28;20414;-28
2022/09/20 01:29:35;;;;;;;;;;;8.10;99.90;;;;;;5033311;28;19971;-28
2022/09/20 01:32:02;;;;;;;;;;;8.10;99.90;;;;;;5016897;28;19917;-28
2022/09/20 01:34:32;;;;;;;;;;;8.00;99.90;;;;;;5016976;28;19999;-28
2022/09/20 01:37:01;;;;;;;;;;;8.00;99.90;;;;;;5016761;28;19921;-27
2022/09/20 01:39:39;;;;;;;;;;;7.90;99.90;;;;;;5016791;28;19943;-27
2022/09/20 01:42:06;;;;;;;;;;;7.90;99.90;;;;;;5016497;28;19917;-28
2022/09/20 01:44:50;;;;;;;;;;;7.90;99.90;;;;;;5016776;28;19917;-28
2022/09/20 01:47:16;;;;;;;;;;;7.90;99.90;;;;;;5032790;28;19963;-28
2022/09/20 01:49:45;;;;;;;;;;;7.90;99.90;;;;;;5016744;28;19917;-28
2022/09/20 01:52:43;;;;;;;;;;;7.90;99.90;;;;;;5016449;28;19940;-28
2022/09/20 01:55:28;;;;;;;;;;;7.90;99.90;;;;;;4983491;28;20473;-28
2022/09/20 01:58:06;;;;;;;;;;;7.80;99.90;;;;;;5033155;28;20181;-27
2022/09/20 02:00:58;;;;;;;;;;;7.80;99.90;;;;;;5016464;28;20294;-27
2022/09/20 02:03:23;;;;;;;;;;;7.80;99.90;;;;;;5013079;28;19917;-27
2022/09/20 02:05:52;;;;;;;;;;;7.90;99.90;;;;;;5016403;28;19917;-27
2022/09/20 02:08:17;;;;;;;;;;;7.90;99.90;;;;;;5016107;28;20005;-28
2022/09/20 02:10:43;;;;;;;;;;;7.90;99.90;;;;;;5016399;28;20031;-28
2022/09/20 02:13:10;;;;;;;;;;;7.90;99.90;;;;;;5016242;28;19917;-28
2022/09/20 02:15:46;;;;;;;;;;;7.90;99.90;;;;;;5016260;28;20007;-27
2022/09/20 02:18:27;;;;;;;;;;;7.90;99.90;;;;;;5016118;28;20389;-27
2022/09/20 02:21:04;;;;;;;;;;;7.90;99.90;;;;;;5015974;28;19928;-27
2022/09/20 02:23:29;;;;;;;;;;;7.90;99.90;;;;;;5016120;28;19918;-28
2022/09/20 02:26:01;;;;;;;;;;;7.90;99.90;;;;;;5034206;28;19926;-28
2022/09/20 02:28:50;;;;;;;;;;;8.00;99.90;;;;;;5016302;28;19917;-28
2022/09/20 02:31:34;;;;;;;;;;;8.00;99.90;;;;;;5007915;28;19928;-28
2022/09/20 02:34:09;;;;;;;;;;;8.10;99.90;;;;;;5032370;28;19928;-28
2022/09/20 02:36:44;;;;;;;;;;;8.10;99.90;;;;;;5016276;28;19917;-28
2022/09/20 02:39:12;;;;;;;;;;;8.10;99.90;;;;;;5016092;28;19917;-28
2022/09/20 02:41:56;;;;;;;;;;;8.10;99.90;;;;;;5015655;28;20264;-27
2022/09/20 02:44:22;;;;;;;;;;;8.00;99.90;;;;;;5016000;28;20290;-28
2022/09/20 02:47:08;;;;;;;;;;;7.90;99.90;;;;;;5034043;28;19917;-28
2022/09/20 02:49:53;;;;;;;;;;;7.90;99.90;;;;;;4995610;28;20359;-27
2022/09/20 02:52:30;;;;;;;;;;;7.90;99.90;;;;;;4999312;28;19917;-28
2022/09/20 02:54:59;;;;;;;;;;;7.80;99.90;;;;;;5016032;28;20282;-28
2022/09/20 02:57:49;;;;;;;;;;;7.70;99.90;;;;;;5015726;28;20208;-28
2022/09/20 03:00:23;;;;;;;;;;;7.70;99.90;;;;;;5016083;28;19924;-27
2022/09/20 03:03:12;;;;;;;;;;;7.60;99.90;;;;;;5015475;28;19968;-28
2022/09/20 03:05:44;;;;;;;;;;;7.60;99.90;;;;;;5015564;28;19921;-28
2022/09/20 03:08:14;;;;;;;;;;;7.60;99.90;;;;;;5015390;28;19923;-27
2022/09/20 03:10:43;;;;;;;;;;;7.50;99.90;;;;;;5015647;28;19983;-27
2022/09/20 03:13:12;;;;;;;;;;;7.50;99.90;;;;;;5016001;28;19917;-28
2022/09/20 03:15:52;;;;;;;;;;;7.50;99.90;;;;;;5015795;28;19924;-28
2022/09/20 03:18:25;;;;;;;;;;;7.50;99.90;;;;;;5015224;28;19921;-28
2022/09/20 03:20:50;;;;;;;;;;;7.50;99.90;;;;;;5015199;28;19921;-28
2022/09/20 03:23:36;;;;;;;;;;;7.40;99.90;;;;;;5015279;28;19917;-28
2022/09/20 03:26:16;;;;;;;;;;;7.40;99.90;;;;;;5005151;28;20416;-28
2022/09/20 03:28:50;;;;;;;;;;;7.40;99.90;;;;;;4998878;28;19960;-28
2022/09/20 03:31:22;;;;;;;;;;;7.30;99.90;;;;;;5032595;28;19927;-27
2022/09/20 03:33:54;;;;;;;;;;;7.30;99.90;;;;;;5015416;28;19966;-27
2022/09/20 03:36:23;;;;;;;;;;;7.30;99.90;;;;;;5015309;28;19921;-28
2022/09/20 03:39:01;;;;;;;;;;;7.20;99.90;;;;;;5015504;28;20396;-28
2022/09/20 03:41:32;;;;;;;;;;;7.20;99.90;;;;;;5015000;28;19937;-28
2022/09/20 03:44:30;;;;;;;;;;;7.20;99.90;;;;;;5033140;28;19917;-28
2022/09/20 03:47:09;;;;;;;;;;;7.20;99.90;;;;;;4982476;28;19924;-28
2022/09/20 03:49:40;;;;;;;;;;;7.20;99.90;;;;;;4998753;28;19996;-28
2022/09/20 03:52:13;;;;;;;;;;;7.10;99.90;;;;;;5016831;28;19921;-27
2022/09/20 03:54:57;;;;;;;;;;;7.10;99.90;;;;;;5019061;28;20294;-28
2022/09/20 03:57:29;;;;;;;;;;;7.10;99.90;;;;;;5035255;28;20375;-28
2022/09/20 03:59:55;;;;;;;;;;;7.10;99.90;;;;;;5018810;28;19917;-28
2022/09/20 04:02:20;;;;;;;;;;;7.10;99.90;;;;;;5018599;28;19928;-27
2022/09/20 04:04:49;;;;;;;;;;;7.10;99.90;;;;;;5018742;28;19917;-30
2022/09/20 04:07:22;;;;;;;;;;;7.10;99.90;;;;;;5018730;28;19964;-27
2022/09/20 04:09:51;;;;;;;;;;;7.20;99.90;;;;;;5018849;28;19940;-27
2022/09/20 04:12:19;;;;;;;;;;;7.20;99.90;;;;;;5018383;28;19917;-27
2022/09/20 04:15:01;;;;;;;;;;;7.20;99.90;;;;;;5018487;28;19924;-29
2022/09/20 04:17:30;;;;;;;;;;;7.30;99.90;;;;;;5018164;28;20024;-28
2022/09/20 04:20:12;;;;;;;;;;;7.30;99.90;;;;;;5018486;28;20267;-28
2022/09/20 04:22:39;;;;;;;;;;;7.40;99.90;;;;;;5018676;28;20298;-28
2022/09/20 04:25:13;;;;;;;;;;;7.50;99.90;;;;;;5018655;28;19917;-27
2022/09/20 04:27:45;;;;;;;;;;;7.60;99.90;;;;;;5018802;28;19955;-27
2022/09/20 04:30:28;;;;;;;;;;;7.60;99.90;;;;;;5001958;28;19921;-28
2022/09/20 04:32:58;;;;;;;;;;;7.70;99.90;;;;;;5018082;28;19917;-27
2022/09/20 04:38:22;;;;;;;;;;;7.80;99.90;;;;;;5036227;28;19925;-28
2022/09/20 04:40:56;;;;;;;;;;;7.90;99.90;;;;;;5017649;28;19917;-27
2022/09/20 04:43:50;;;;;;;;;;;7.90;99.90;;;;;;5018430;28;19920;-27
2022/09/20 04:46:34;;;;;;;;;;;7.90;99.90;;;;;;5018108;28;19917;-27
2022/09/20 04:49:14;;;;;;;;;;;8.00;99.90;;;;;;5014898;28;19917;-30
2022/09/20 04:51:39;;;;;;;;;;;8.10;99.90;;;;;;5033363;28;19924;-30
2022/09/20 04:54:11;;;;;;;;;;;8.10;99.90;;;;;;5034345;28;19917;-30
2022/09/20 04:56:53;;;;;;;;;;;8.20;99.90;;;;;;5030636;28;19924;-30
2022/09/20 04:59:37;;;;;;;;;;;8.20;99.90;;;;;;5008974;28;20024;-30
2022/09/20 05:02:15;;;;;;;;;;;8.20;99.90;;;;;;5029152;28;19917;-29
2022/09/20 05:04:52;;;;;;;;;;;8.30;99.90;;;;;;5014032;28;19918;-30
2022/09/20 05:07:32;;;;;;;;;;;8.40;99.90;;;;;;5030253;28;20007;-30
2022/09/20 05:10:16;;;;;;;;;;;8.40;99.90;;;;;;5019455;28;20020;-30
2022/09/20 05:12:55;;;;;;;;;;;8.50;99.90;;;;;;5028978;28;20008;-30
2022/09/20 05:15:27;;;;;;;;;;;8.50;99.90;;;;;;5028713;28;20390;-30
2022/09/20 05:18:12;;;;;;;;;;;8.60;99.90;;;;;;5030947;28;20071;-29
2022/09/20 05:20:53;;;;;;;;;;;8.60;99.90;;;;;;5033514;28;20444;-30
2022/09/20 05:23:31;;;;;;;;;;;8.70;99.90;;;;;;5031954;28;19991;-30
2022/09/20 05:26:06;;;;;;;;;;;8.70;99.90;;;;;;5020336;28;19917;-30
2022/09/20 05:28:43;;;;;;;;;;;8.70;99.90;;;;;;5033148;28;19916;-30
2022/09/20 05:31:09;;;;;;;;;;;8.70;99.90;;;;;;5019445;28;19917;-29
2022/09/20 05:33:56;;;;;;;;;;;8.70;99.90;;;;;;5024887;28;19917;-30
2022/09/20 05:36:22;;;;;;;;;;;8.70;99.90;;;;;;5010126;28;19917;-29
2022/09/20 05:38:49;;;;;;;;;;;8.70;99.90;;;;;;5004029;28;19921;-29
2022/09/20 05:41:30;;;;;;;;;;;8.80;99.90;;;;;;4995661;28;19923;-30
2022/09/20 05:44:15;;;;;;;;;;;8.80;99.90;;;;;;5023472;28;19923;-30
2022/09/20 05:46:40;;;;;;;;;;;8.80;99.90;;;;;;5027952;28;19928;-30
2022/09/20 05:49:15;;;;;;;;;;;8.80;99.90;;;;;;5033581;28;19920;-29
2022/09/20 05:51:41;;;;;;;;;;;8.90;99.90;;;;;;5030822;28;19927;-29
2022/09/20 05:54:20;;;;;;;;;;;8.90;99.90;;;;;;5037369;28;19916;-30
2022/09/20 05:57:05;;;;;;;;;;;8.90;99.90;;;;;;5018102;28;20367;-30
2022/09/20 05:59:39;;;;;;;;;;;9.00;99.90;;;;;;5033048;28;20390;-29
2022/09/20 06:02:10;;;;;;;;;;;9.00;99.90;;;;;;5020961;28;19917;-30
2022/09/20 06:04:58;;;;;;;;;;;9.10;99.90;;;;;;5020238;28;19916;-29
2022/09/20 06:07:31;;;;;;;;;;;9.20;99.90;;;;;;5001051;28;20363;-30
2022/09/20 06:10:15;;;;;;;;;;;9.20;99.90;;;;;;5017797;28;20434;-29
2022/09/20 06:12:41;;;;;;;;;;;9.30;99.90;;;;;;5019664;28;19917;-29
2022/09/20 06:15:10;;;;;;;;;;;9.40;99.90;;;;;;5029210;28;19964;-29
2022/09/20 06:17:39;;;;;;;;;;;9.50;99.90;;;;;;5023567;28;20388;-30
2022/09/20 06:20:14;;;;;;;;;;;9.50;99.90;;;;;;5028835;28;19917;-30
2022/09/20 06:22:42;;;;;;;;;;;9.60;99.90;;;;;;5016670;28;19923;-30
2022/09/20 06:25:08;;;;;;;;;;;9.60;99.90;;;;;;5018102;28;19923;-30
2022/09/20 06:27:36;;;;;;;;;;;9.70;99.90;;;;;;5037222;28;19917;-29
2022/09/20 06:30:05;;;;;;;;;;;9.80;99.90;;;;;;5009024;28;19917;-30
2022/09/20 06:32:31;;;;;;;;;;;9.80;99.90;;;;;;4998269;28;19921;-29
2022/09/20 06:34:57;;;;;;;;;;;9.90;99.90;;;;;;5012874;28;19925;-30
2022/09/20 06:43:08;;;;;;;;;;;10.10;99.90;;;;;;5035471;28;20382;-29
2022/09/20 06:45:34;;;;;;;;;;;10.10;99.90;;;;;;5013125;28;20355;-30
2022/09/20 06:48:01;;;;;;;;;;;10.20;99.90;;;;;;5018187;28;19921;-30
2022/09/20 06:50:26;;;;;;;;;;;10.20;99.90;;;;;;5015032;28;19917;-30
2022/09/20 06:52:53;;;;;;;;;;;10.30;99.90;;;;;;4999569;28;19970;-29
2022/09/20 06:55:26;;;;;;;;;;;10.40;99.90;;;;;;5019737;28;19917;-30
2022/09/20 06:57:52;;;;;;;;;;;10.40;99.90;;;;;;5022141;28;20059;-30
2022/09/20 07:00:18;;;;;;;;;;;10.50;99.90;;;;;;5016696;28;20283;-31
2022/09/20 07:02:45;;;;;;;;;;;10.50;99.90;;;;;;5015600;28;19996;-31
2022/09/20 07:05:14;;;;;;;;;;;10.60;99.90;;;;;;5011774;28;19921;-31
2022/09/20 07:07:42;;;;;;;;;;;10.70;99.90;;;;;;5016815;28;20137;-29
2022/09/20 07:10:11;;;;;;;;;;;10.70;99.90;;;;;;4996737;28;19917;-31
2022/09/20 07:12:36;;;;;;;;;;;10.70;99.90;;;;;;5026758;28;20329;-31
2022/09/20 07:15:02;;;;;;;;;;;10.80;99.90;;;;;;5007232;28;19917;-31
2022/09/20 07:17:28;;;;;;;;;;;10.80;99.90;;;;;;5014223;28;19921;-31
2022/09/20 07:19:55;;;;;;;;;;;10.90;99.90;;;;;;5016725;28;20394;-31
2022/09/20 07:22:21;;;;;;;;;;;11.00;99.90;;;;;;5022703;28;19939;-32
2022/09/20 07:24:47;;;;;;;;;;;11.10;99.90;;;;;;5032909;28;20003;-31
2022/09/20 07:27:12;;;;;;;;;;;11.10;99.90;;;;;;5017669;28;20359;-32
2022/09/20 07:29:39;;;;;;;;;;;11.20;99.90;;;;;;5015916;28;19936;-29
2022/09/20 07:32:05;;;;;;;;;;;11.30;99.90;;;;;;5033871;28;20462;-29
2022/09/20 07:34:31;;;;;;;;;;;11.40;99.90;;;;;;5035780;28;19956;-29
2022/09/20 07:36:58;;;;;;;;;;;11.40;99.90;;;;;;5002809;28;19921;-29
2022/09/20 07:39:24;;;;;;;;;;;11.50;99.90;;;;;;5017607;28;19924;-29
2022/09/20 07:41:50;;;;;;;;;;;11.60;99.90;;;;;;5018497;28;19917;-29
2022/09/20 07:44:26;;;;;;;;;;;11.60;99.90;;;;;;5018819;28;20398;-29
2022/09/20 07:46:53;;;;;;;;;;;11.70;99.90;;;;;;5020727;28;20290;-30
2022/09/20 07:49:20;;;;;;;;;;;11.90;99.90;;;;;;5023584;28;19917;-29
2022/09/20 07:51:45;;;;;;;;;;;12.10;99.90;;;;;;5018387;28;19963;-29
2022/09/20 07:54:11;;;;;;;;;;;12.40;99.90;;;;;;5023123;28;19921;-30
2022/09/20 07:56:37;;;;;;;;;;;12.50;99.90;;;;;;5034972;28;20008;-30
2022/09/20 07:59:03;;;;;;;;;;;12.70;99.90;;;;;;5019840;28;20003;-27
2022/09/20 08:01:29;;;;;;;;;;;12.80;99.90;;;;;;5036627;28;19956;-27
2022/09/20 08:03:55;;;;;;;;;;;13.00;99.90;;;;;;5036771;28;19917;-28
2022/09/20 08:06:21;;;;;;;;;;;13.10;99.90;;;;;;5019306;28;20362;-28
2022/09/20 08:08:48;;;;;;;;;;;13.20;99.90;;;;;;5019417;28;19975;-28
2022/09/20 08:11:18;;;;;;;;;;;13.40;99.90;;;;;;5036474;28;19917;-28
2022/09/20 08:13:49;;;;;;;;;;;13.50;99.90;;;;;;5019384;28;19923;-28
2022/09/20 08:16:15;;;;;;;;;;;13.60;99.90;;;;;;5036295;28;19917;-28
2022/09/20 08:18:49;;;;;;;;;;;13.80;99.90;;;;;;5018525;28;19929;-28
2022/09/20 08:21:15;;;;;;;;;;;13.80;99.90;;;;;;5018278;28;20370;-28
2022/09/20 08:23:41;;;;;;;;;;;14.00;99.90;;;;;;5036066;28;19928;-28
2022/09/20 08:26:10;;;;;;;;;;;14.20;99.90;;;;;;5018583;28;19917;-28
2022/09/20 08:28:36;;;;;;;;;;;14.40;99.90;;;;;;5018177;28;19921;-28
2022/09/20 08:31:06;;;;;;;;;;;14.60;99.90;;;;;;5036239;28;20052;-28
2022/09/20 08:33:32;;;;;;;;;;;14.70;99.90;;;;;;5018377;28;19917;-28
2022/09/20 08:35:59;;;;;;;;;;;14.70;99.90;;;;;;5018594;28;19924;-28
2022/09/20 08:38:26;;;;;;;;;;;14.80;99.90;;;;;;5018057;28;20370;-29
2022/09/20 08:41:18;;;;;;;;;;;14.90;99.90;;;;;;5019550;28;20402;-28
2022/09/20 08:43:50;;;;;;;;;;;15.00;99.90;;;;;;4996216;28;19978;-28
2022/09/20 08:46:18;;;;;;;;;;;15.20;99.90;;;;;;5019971;28;19984;-28
2022/09/20 08:48:45;;;;;;;;;;;15.40;99.90;;;;;;5020202;28;19924;-28
2022/09/20 08:51:12;;;;;;;;;;;15.40;99.90;;;;;;5019573;28;19921;-29
2022/09/20 08:53:42;;;;;;;;;;;15.50;99.90;;;;;;5037689;28;19925;-28
2022/09/20 08:56:08;;;;;;;;;;;15.60;99.90;;;;;;5003439;28;19917;-29
2022/09/20 08:58:35;;;;;;;;;;;15.80;99.90;;;;;;5018964;28;20345;-29
2022/09/20 09:01:02;;;;;;;;;;;15.90;99.90;;;;;;5002468;28;19921;-29
2022/09/20 09:03:28;;;;;;;;;;;15.80;99.90;;;;;;5019017;28;19939;-30
2022/09/20 09:05:54;;;;;;;;;;;15.90;99.90;;;;;;5002612;28;19917;-29
2022/09/20 09:08:38;;;;;;;;;;;16.00;99.90;;;;;;5036617;28;20390;-29
2022/09/20 09:11:08;;;;;;;;;;;16.10;99.90;;;;;;5018348;28;19924;-29
2022/09/20 09:13:53;;;;;;;;;;;16.10;99.90;;;;;;5018160;28;19917;-29
2022/09/20 09:16:20;;;;;;;;;;;16.20;99.90;;;;;;5017959;28;20000;-28
2022/09/20 09:18:48;;;;;;;;;;;16.30;99.90;;;;;;5018425;28;19921;-28
2022/09/20 09:21:16;;;;;;;;;;;16.40;99.90;;;;;;5000993;28;19917;-28
2022/09/20 09:24:09;;;;;;;;;;;16.60;99.90;;;;;;5034473;28;20039;-29
2022/09/20 09:26:37;;;;;;;;;;;16.90;99.90;;;;;;5015043;28;19917;-29
2022/09/20 09:29:17;;;;;;;;;;;17.00;99.90;;;;;;5017737;28;19964;-29
2022/09/20 09:31:44;;;;;;;;;;;17.00;99.90;;;;;;5017330;28;19917;-29
2022/09/20 09:34:23;;;;;;;;;;;17.00;99.90;;;;;;5017419;28;19948;-30
2022/09/20 09:36:49;;;;;;;;;;;17.20;99.90;;;;;;5015339;28;19917;-30
2022/09/20 09:39:24;;;;;;;;;;;17.60;99.90;;;;;;5015453;28;19916;-30
2022/09/20 09:41:50;;;;;;;;;;;17.80;99.90;;;;;;5017864;28;20200;-31
2022/09/20 09:44:28;;;;;;;;;;;18.20;99.90;;;;;;5015988;28;20390;-30
2022/09/20 09:46:57;;;;;;;;;;;18.50;99.90;;;;;;5018715;28;19923;-31
2022/09/20 09:49:24;;;;;;;;;;;19.00;99.90;;;;;;4996709;28;19924;-31
2022/09/20 09:52:01;;;;;;;;;;;19.60;99.90;;;;;;5023240;28;20377;-31
2022/09/20 09:54:28;;;;;;;;;;;19.90;99.90;;;;;;5028138;28;19916;-29
2022/09/20 09:57:02;;;;;;;;;;;20.20;99.90;;;;;;4995496;28;19924;-30
2022/09/20 09:59:28;;;;;;;;;;;20.40;99.90;;;;;;5023135;28;19917;-30
2022/09/20 10:01:54;;;;;;;;;;;20.40;98.00;;;;;;5011836;28;19921;-29
2022/09/20 10:04:32;;;;;;;;;;;20.60;99.90;;;;;;5031838;28;19917;-30
2022/09/20 10:07:08;;;;;;;;;;;20.70;99.90;;;;;;5026933;28;19956;-29
2022/09/20 10:09:46;;;;;;;;;;;20.80;99.90;;;;;;5011139;28;19924;-29
2022/09/20 10:12:39;;;;;;;;;;;20.90;99.90;;;;;;5011077;28;19917;-30
2022/09/20 10:15:21;;;;;;;;;;;21.50;99.90;;;;;;4985624;28;20329;-30
2022/09/20 10:17:57;;;;;;;;;;;21.80;99.90;;;;;;5017107;28;19921;-30
2022/09/20 10:20:41;;;;;;;;;;;22.20;88.50;;;;;;5007410;28;19924;-30
2022/09/20 10:23:22;;;;;;;;;;;22.20;91.20;;;;;;5030371;28;19923;-30
2022/09/20 10:25:56;;;;;;;;;;;22.50;90.20;;;;;;5044505;28;19978;-30
2022/09/20 10:28:47;;;;;;;;;;;22.60;83.30;;;;;;5020325;28;20319;-30
2022/09/20 10:31:22;;;;;;;;;;;22.30;86.60;;;;;;5011091;28;19917;-30
2022/09/20 10:34:04;;;;;;;;;;;22.00;85.30;;;;;;5019413;28;19924;-30
2022/09/20 10:36:52;;;;;;;;;;;22.00;86.30;;;;;;5016990;28;19925;-30
2022/09/20 10:39:18;;;;;;;;;;;21.00;75.40;;;;;;5019406;28;19921;-30
2022/09/20 10:44:50;;;;;;;;;;;19.80;85.50;;;;;;5016193;28;19917;-30
2022/09/20 10:47:18;;;;;;;;;;;19.40;94.50;;;;;;5030159;28;19917;-30
2022/09/20 10:49:56;;;;;;;;;;;19.20;99.90;;;;;;5010694;28;19917;-30
2022/09/20 10:52:40;;;;;;;;;;;19.10;99.90;;;;;;5031062;28;19917;-31
2022/09/20 10:55:09;;;;;;;;;;;19.00;99.90;;;;;;5027654;28;19924;-31
2022/09/20 10:57:38;;;;;;;;;;;18.50;99.90;;;;;;5036007;28;20394;-31
2022/09/20 11:00:21;;;;;;;;;;;17.90;99.90;;;;;;5026639;28;19971;-31
2022/09/20 11:02:46;;;;;;;;;;;17.50;99.90;;;;;;5030190;28;19921;-31
2022/09/20 11:05:19;;;;;;;;;;;17.10;99.90;;;;;;5032214;28;19916;-31
2022/09/20 11:07:51;;;;;;;;;;;16.50;99.90;;;;;;5015242;28;20333;-31
2022/09/20 11:10:24;;;;;;;;;;;16.20;99.90;;;;;;5014247;28;19916;-31
2022/09/20 11:12:59;;;;;;;;;;;16.00;99.90;;;;;;5037460;28;19924;-31
2022/09/20 11:15:32;;;;;;;;;;;16.00;99.90;;;;;;5020429;28;19923;-31
2022/09/20 11:18:04;;;;;;;;;;;16.10;99.90;;;;;;5020862;28;20418;-31
2022/09/20 11:20:32;;;;;;;;;;;16.20;99.90;;;;;;5026702;28;19925;-31
2022/09/20 11:23:04;;;;;;;;;;;16.50;99.90;;;;;;5021747;28;20382;-31
2022/09/20 11:25:45;;;;;;;;;;;16.70;99.90;;;;;;5015324;28;20379;-32
2022/09/20 11:28:29;;;;;;;;;;;16.90;99.90;;;;;;5034123;28;19920;-32
2022/09/20 11:31:16;;;;;;;;;;;17.20;99.90;;;;;;5015363;28;20374;-32
2022/09/20 11:33:44;;;;;;;;;;;17.10;99.90;;;;;;5005183;28;19917;-32
2022/09/20 11:36:30;;;;;;;;;;;17.20;99.90;;;;;;5016826;28;20325;-32
2022/09/20 11:39:04;;;;;;;;;;;17.10;99.90;;;;;;5030900;28;19920;-32
2022/09/20 11:41:30;;;;;;;;;;;17.00;99.90;;;;;;5039828;28;19940;-32
2022/09/20 11:44:06;;;;;;;;;;;17.00;99.90;;;;;;5033471;28;19963;-30
2022/09/20 11:46:37;;;;;;;;;;;17.10;99.90;;;;;;5023033;28;20004;-32
2022/09/20 11:49:03;;;;;;;;;;;17.10;99.90;;;;;;5013127;28;19939;-31
2022/09/20 11:51:55;;;;;;;;;;;17.20;99.90;;;;;;5016817;28;19925;-31
2022/09/20 11:54:39;;;;;;;;;;;17.30;99.90;;;;;;4970300;28;19917;-31
2022/09/20 11:57:06;;;;;;;;;;;17.40;99.90;;;;;;5029391;28;19928;-31
2022/09/20 11:59:34;;;;;;;;;;;17.50;99.90;;;;;;5021719;28;19975;-31
2022/09/20 12:02:02;;;;;;;;;;;17.50;99.90;;;;;;5017017;28;19925;-32
2022/09/20 12:04:30;;;;;;;;;;;17.70;99.90;;;;;;5014930;28;19951;-32
2022/09/20 12:07:14;;;;;;;;;;;17.80;99.90;;;;;;5019500;28;19924;-32
2022/09/20 12:09:42;;;;;;;;;;;17.60;99.90;;;;;;5021279;28;19917;-32
2022/09/20 12:12:28;;;;;;;;;;;17.50;99.90;;;;;;5032112;28;19921;-31
2022/09/20 12:14:58;;;;;;;;;;;17.70;99.90;;;;;;5023118;28;19917;-31
2022/09/20 12:17:53;;;;;;;;;;;17.70;99.90;;;;;;5022758;28;20007;-31
2022/09/20 12:20:31;;;;;;;;;;;17.80;99.90;;;;;;5013305;28;19923;-32
2022/09/20 12:23:16;;;;;;;;;;;17.80;99.90;;;;;;5035013;28;19999;-32
2022/09/20 12:26:05;;;;;;;;;;;18.00;99.90;;;;;;5045232;28;19928;-31
2022/09/20 12:28:49;;;;;;;;;;;18.60;99.90;;;;;;5041048;28;19928;-30
2022/09/20 12:31:20;;;;;;;;;;;19.20;99.90;;;;;;5030168;28;20268;-30
2022/09/20 12:34:00;;;;;;;;;;;19.50;99.90;;;;;;5037905;28;19924;-30
2022/09/20 12:36:27;;;;;;;;;;;19.80;99.90;;;;;;5032300;28;19923;-30
2022/09/20 12:38:57;;;;;;;;;;;20.60;94.70;;;;;;5019429;28;20229;-30
2022/09/20 12:41:23;;;;;;;;;;;21.20;86.50;;;;;;5020722;28;19917;-31
2022/09/20 12:43:49;;;;;;;;;;;21.90;96.30;;;;;;5019516;28;19964;-32
2022/09/20 12:46:20;;;;;;;;;;;23.10;81.40;;;;;;5021752;28;19920;-31
2022/09/20 12:48:45;;;;;;;;;;;23.20;68.10;;;;;;5033367;28;20299;-30
2022/09/20 12:54:04;;;;;;;;;;;22.40;70.80;;;;;;5019769;28;19916;-29
2022/09/20 12:56:33;;;;;;;;;;;22.10;70.70;;;;;;5014363;28;19924;-29
2022/09/20 12:59:04;;;;;;;;;;;21.70;76.10;;;;;;5019653;28;20011;-29
2022/09/20 13:01:32;;;;;;;;;;;21.30;94.30;;;;;;5023518;28;20313;-29
2022/09/20 13:04:16;;;;;;;;;;;21.30;96.40;;;;;;5039481;28;20113;-29
2022/09/20 13:06:43;;;;;;;;;;;21.00;82.70;;;;;;5036807;28;19917;-29
2022/09/20 13:09:09;;;;;;;;;;;20.30;87.00;;;;;;5027342;28;20042;-30
2022/09/20 13:11:41;;;;;;;;;;;19.70;92.80;;;;;;5001233;28;20331;-31
2022/09/20 13:14:06;;;;;;;;;;;19.10;92.70;;;;;;5022231;28;19917;-31
2022/09/20 13:16:43;;;;;;;;;;;18.60;91.10;;;;;;5014950;28;19917;-31
2022/09/20 13:19:15;;;;;;;;;;;18.30;92.00;;;;;;5039050;28;20406;-31
2022/09/20 13:21:46;;;;;;;;;;;18.00;98.70;;;;;;5039421;28;20397;-31
2022/09/20 13:24:15;;;;;;;;;;;17.80;99.50;;;;;;5032410;28;19967;-31
2022/09/20 13:26:44;;;;;;;;;;;17.70;98.20;;;;;;5034689;28;19921;-31
2022/09/20 13:29:21;;;;;;;;;;;17.70;99.90;;;;;;5029976;28;19959;-30
2022/09/20 13:31:47;;;;;;;;;;;17.80;99.90;;;;;;5025735;28;19917;-29
2022/09/20 13:34:13;;;;;;;;;;;17.90;99.90;;;;;;5002882;28;20414;-29
2022/09/20 13:36:38;;;;;;;;;;;18.10;99.90;;;;;;5019024;28;19960;-29
2022/09/20 13:39:06;;;;;;;;;;;18.60;99.90;;;;;;5036498;28;19921;-29
2022/09/20 13:41:34;;;;;;;;;;;19.30;99.90;;;;;;5018654;28;19975;-29
2022/09/20 13:44:00;;;;;;;;;;;19.70;99.90;;;;;;5018381;28;19921;-29
2022/09/20 13:46:32;;;;;;;;;;;19.70;89.70;;;;;;5018432;28;19924;-29
2022/09/20 13:49:11;;;;;;;;;;;19.70;74.90;;;;;;5002007;28;20007;-30
2022/09/20 13:51:36;;;;;;;;;;;20.00;90.30;;;;;;5001816;28;19917;-29
2022/09/20 13:54:24;;;;;;;;;;;20.30;93.40;;;;;;5016981;28;19924;-29
2022/09/20 13:56:50;;;;;;;;;;;21.30;72.20;;;;;;5017302;28;20341;-29
2022/09/20 13:59:18;;;;;;;;;;;21.50;62.80;;;;;;5016613;28;19917;-28
2022/09/20 14:01:51;;;;;;;;;;;21.70;77.40;;;;;;5015999;28;19924;-28
2022/09/20 14:04:20;;;;;;;;;;;22.00;59.80;;;;;;5016527;28;20011;-29
2022/09/20 14:06:46;;;;;;;;;;;22.20;63.00;;;;;;5016374;28;19982;-29
2022/09/20 14:09:19;;;;;;;;;;;23.20;59.70;;;;;;5016762;28;19917;-29
2022/09/20 14:11:45;;;;;;;;;;;23.70;61.60;;;;;;5000188;28;19984;-29
2022/09/20 14:14:12;;;;;;;;;;;23.60;54.80;;;;;;5034559;28;20298;-29
2022/09/20 14:16:39;;;;;;;;;;;23.10;55.90;;;;;;5016546;28;19917;-29
2022/09/20 14:19:06;;;;;;;;;;;22.50;55.40;;;;;;4999629;28;20390;-29
2022/09/20 14:21:33;;;;;;;;;;;22.10;55.60;;;;;;5015785;28;19917;-29
2022/09/20 14:24:05;;;;;;;;;;;22.40;58.20;;;;;;5000078;28;19917;-29
2022/09/20 14:26:38;;;;;;;;;;;23.50;60.30;;;;;;4999452;28;19917;-27
2022/09/20 14:29:23;;;;;;;;;;;24.50;48.30;;;;;;5016113;28;19917;-28
2022/09/20 14:31:48;;;;;;;;;;;25.40;51.30;;;;;;5015630;28;19917;-28
2022/09/20 14:34:14;;;;;;;;;;;26.20;49.50;;;;;;5015951;28;19967;-27
2022/09/20 14:36:40;;;;;;;;;;;26.90;48.40;;;;;;5032928;28;19917;-27
2022/09/20 14:39:13;;;;;;;;;;;27.40;45.20;;;;;;5015926;28;19921;-28
2022/09/20 14:41:39;;;;;;;;;;;28.00;47.60;;;;;;5015356;28;19925;-28
2022/09/20 14:44:16;;;;;;;;;;;28.00;45.40;;;;;;5015533;28;19917;-28
2022/09/20 14:46:42;;;;;;;;;;;27.80;48.70;;;;;;5033480;28;19992;-28
2022/09/20 14:49:28;;;;;;;;;;;28.20;46.60;;;;;;5015355;28;19928;-27
2022/09/20 14:52:13;;;;;;;;;;;28.30;43.50;;;;;;5015707;28;19917;-28
2022/09/20 14:54:40;;;;;;;;;;;27.50;42.10;;;;;;5015247;28;19924;-27
2022/09/20 14:57:07;;;;;;;;;;;27.50;44.70;;;;;;5015320;28;19928;-27
2022/09/20 14:59:40;;;;;;;;;;;27.20;44.10;;;;;;5015616;28;19924;-27
2022/09/20 15:02:06;;;;;;;;;;;27.10;43.60;;;;;;5016482;28;19999;-28
2022/09/20 15:04:34;;;;;;;;;;;26.40;41.60;;;;;;5016001;28;20404;-29
2022/09/20 15:07:01;;;;;;;;;;;25.20;41.50;;;;;;5034148;28;19924;-28
2022/09/20 15:09:26;;;;;;;;;;;24.50;44.80;;;;;;5017046;28;20441;-27